sensor_id;sensor_type;location;lat;lon;timestamp;P1;durP1;ratioP1;P2;durP2;ratioP2
59074;SDS011;44860;53.020;6.738;2023-07-13T00:01:50;10.43;;;2.70;;
59074;SDS011;44860;53.020;6.738;2023-07-13T00:04:20;8.57;;;2.78;;
59074;SDS011;44860;53.020;6.738;2023-07-13T00:06:48;10.23;;;2.60;;
59074;SDS011;44860;53.020;6.738;2023-07-13T00:09:15;6.78;;;2.40;;
59074;SDS011;44860;53.020;6.738;2023-07-13T00:11:42;9.82;;;2.75;;
59074;SDS011;44860;53.020;6.738;2023-07-13T00:14:09;10.68;;;2.63;;
59074;SDS011;44860;53.020;6.738;2023-07-13T00:16:36;9.32;;;2.80;;
59074;SDS011;44860;53.020;6.738;2023-07-13T00:19:04;10.18;;;2.88;;
59074;SDS011;44860;53.020;6.738;2023-07-13T00:21:30;7.85;;;2.40;;
59074;SDS011;44860;53.020;6.738;2023-07-13T00:23:56;13.55;;;3.10;;
59074;SDS011;44860;53.020;6.738;2023-07-13T00:26:22;9.93;;;3.03;;
59074;SDS011;44860;53.020;6.738;2023-07-13T00:28:48;10.38;;;3.13;;
59074;SDS011;44860;53.020;6.738;2023-07-13T00:31:14;14.10;;;3.45;;
59074;SDS011;44860;53.020;6.738;2023-07-13T00:33:40;10.57;;;3.00;;
59074;SDS011;44860;53.020;6.738;2023-07-13T00:36:07;10.88;;;2.92;;
59074;SDS011;44860;53.020;6.738;2023-07-13T00:38:34;9.40;;;2.55;;
59074;SDS011;44860;53.020;6.738;2023-07-13T00:40:59;13.98;;;3.33;;
59074;SDS011;44860;53.020;6.738;2023-07-13T00:43:27;12.93;;;3.00;;
59074;SDS011;44860;53.020;6.738;2023-07-13T00:48:20;10.88;;;3.20;;
59074;SDS011;44860;53.020;6.738;2023-07-13T00:50:51;11.65;;;3.28;;
59074;SDS011;44860;53.020;6.738;2023-07-13T00:53:19;10.02;;;2.90;;
59074;SDS011;44860;53.020;6.738;2023-07-13T00:55:46;13.20;;;3.20;;
59074;SDS011;44860;53.020;6.738;2023-07-13T00:58:13;12.07;;;3.50;;
59074;SDS011;44860;53.020;6.738;2023-07-13T01:00:40;12.85;;;2.80;;
59074;SDS011;44860;53.020;6.738;2023-07-13T01:03:07;13.20;;;2.83;;
59074;SDS011;44860;53.020;6.738;2023-07-13T01:05:34;14.55;;;3.47;;
59074;SDS011;44860;53.020;6.738;2023-07-13T01:08:00;11.15;;;3.10;;
59074;SDS011;44860;53.020;6.738;2023-07-13T01:10:27;11.52;;;3.38;;
59074;SDS011;44860;53.020;6.738;2023-07-13T01:12:53;11.65;;;3.00;;
59074;SDS011;44860;53.020;6.738;2023-07-13T01:18:11;13.57;;;3.20;;
59074;SDS011;44860;53.020;6.738;2023-07-13T01:20:40;14.50;;;3.08;;
59074;SDS011;44860;53.020;6.738;2023-07-13T01:23:08;11.05;;;3.30;;
59074;SDS011;44860;53.020;6.738;2023-07-13T01:25:36;13.13;;;3.17;;
59074;SDS011;44860;53.020;6.738;2023-07-13T01:28:06;14.82;;;3.47;;
59074;SDS011;44860;53.020;6.738;2023-07-13T01:33:03;12.20;;;3.10;;
59074;SDS011;44860;53.020;6.738;2023-07-13T01:35:29;15.93;;;3.50;;
59074;SDS011;44860;53.020;6.738;2023-07-13T01:37:55;12.82;;;3.53;;
59074;SDS011;44860;53.020;6.738;2023-07-13T01:40:22;13.80;;;3.35;;
59074;SDS011;44860;53.020;6.738;2023-07-13T01:42:48;12.82;;;3.15;;
59074;SDS011;44860;53.020;6.738;2023-07-13T01:45:13;11.80;;;3.10;;
59074;SDS011;44860;53.020;6.738;2023-07-13T01:47:39;16.30;;;3.80;;
59074;SDS011;44860;53.020;6.738;2023-07-13T01:50:05;11.50;;;2.78;;
59074;SDS011;44860;53.020;6.738;2023-07-13T01:52:31;16.42;;;3.60;;
59074;SDS011;44860;53.020;6.738;2023-07-13T01:54:57;10.68;;;3.20;;
59074;SDS011;44860;53.020;6.738;2023-07-13T01:57:22;10.80;;;3.13;;
59074;SDS011;44860;53.020;6.738;2023-07-13T01:59:48;11.27;;;3.22;;
59074;SDS011;44860;53.020;6.738;2023-07-13T02:02:14;9.02;;;3.05;;
59074;SDS011;44860;53.020;6.738;2023-07-13T02:04:40;12.23;;;3.20;;
59074;SDS011;44860;53.020;6.738;2023-07-13T02:07:05;11.70;;;3.17;;
59074;SDS011;44860;53.020;6.738;2023-07-13T02:09:32;11.88;;;3.58;;
59074;SDS011;44860;53.020;6.738;2023-07-13T02:11:58;13.63;;;3.10;;
59074;SDS011;44860;53.020;6.738;2023-07-13T02:14:24;10.70;;;3.30;;
59074;SDS011;44860;53.020;6.738;2023-07-13T02:16:49;11.50;;;3.28;;
59074;SDS011;44860;53.020;6.738;2023-07-13T02:19:15;13.48;;;3.05;;
59074;SDS011;44860;53.020;6.738;2023-07-13T02:21:41;10.05;;;3.20;;
59074;SDS011;44860;53.020;6.738;2023-07-13T02:24:06;13.35;;;3.72;;
59074;SDS011;44860;53.020;6.738;2023-07-13T02:26:32;12.73;;;3.58;;
59074;SDS011;44860;53.020;6.738;2023-07-13T02:28:58;10.40;;;3.22;;
59074;SDS011;44860;53.020;6.738;2023-07-13T02:31:24;12.88;;;3.38;;
59074;SDS011;44860;53.020;6.738;2023-07-13T02:33:49;9.48;;;3.30;;
59074;SDS011;44860;53.020;6.738;2023-07-13T02:36:15;9.98;;;3.30;;
59074;SDS011;44860;53.020;6.738;2023-07-13T02:38:41;15.23;;;3.20;;
59074;SDS011;44860;53.020;6.738;2023-07-13T02:41:07;16.67;;;3.75;;
59074;SDS011;44860;53.020;6.738;2023-07-13T02:43:34;14.80;;;3.30;;
59074;SDS011;44860;53.020;6.738;2023-07-13T02:46:01;11.70;;;3.65;;
59074;SDS011;44860;53.020;6.738;2023-07-13T02:48:32;11.93;;;3.58;;
59074;SDS011;44860;53.020;6.738;2023-07-13T02:50:59;12.30;;;3.88;;
59074;SDS011;44860;53.020;6.738;2023-07-13T02:53:24;14.85;;;3.40;;
59074;SDS011;44860;53.020;6.738;2023-07-13T02:55:50;14.10;;;3.63;;
59074;SDS011;44860;53.020;6.738;2023-07-13T02:58:16;15.48;;;3.83;;
59074;SDS011;44860;53.020;6.738;2023-07-13T03:00:45;13.20;;;3.70;;
59074;SDS011;44860;53.020;6.738;2023-07-13T03:03:12;15.90;;;4.05;;
59074;SDS011;44860;53.020;6.738;2023-07-13T03:05:41;13.52;;;3.80;;
59074;SDS011;44860;53.020;6.738;2023-07-13T03:08:09;15.13;;;3.55;;
59074;SDS011;44860;53.020;6.738;2023-07-13T03:10:36;12.98;;;3.80;;
59074;SDS011;44860;53.020;6.738;2023-07-13T03:13:02;16.80;;;4.05;;
59074;SDS011;44860;53.020;6.738;2023-07-13T03:15:28;13.77;;;3.75;;
59074;SDS011;44860;53.020;6.738;2023-07-13T03:17:54;12.95;;;3.33;;
59074;SDS011;44860;53.020;6.738;2023-07-13T03:20:20;15.63;;;3.60;;
59074;SDS011;44860;53.020;6.738;2023-07-13T03:22:46;12.57;;;3.45;;
59074;SDS011;44860;53.020;6.738;2023-07-13T03:25:12;14.90;;;3.50;;
59074;SDS011;44860;53.020;6.738;2023-07-13T03:27:38;16.00;;;3.95;;
59074;SDS011;44860;53.020;6.738;2023-07-13T03:30:04;12.85;;;3.97;;
59074;SDS011;44860;53.020;6.738;2023-07-13T03:32:31;13.77;;;3.65;;
59074;SDS011;44860;53.020;6.738;2023-07-13T03:34:57;15.45;;;4.18;;
59074;SDS011;44860;53.020;6.738;2023-07-13T03:37:23;14.88;;;3.67;;
59074;SDS011;44860;53.020;6.738;2023-07-13T03:39:49;12.70;;;3.25;;
59074;SDS011;44860;53.020;6.738;2023-07-13T03:42:15;15.98;;;3.70;;
59074;SDS011;44860;53.020;6.738;2023-07-13T03:44:41;12.90;;;3.42;;
59074;SDS011;44860;53.020;6.738;2023-07-13T03:47:11;12.20;;;3.42;;
59074;SDS011;44860;53.020;6.738;2023-07-13T03:49:37;13.77;;;3.47;;
59074;SDS011;44860;53.020;6.738;2023-07-13T03:52:03;11.85;;;3.70;;
59074;SDS011;44860;53.020;6.738;2023-07-13T03:54:29;14.55;;;3.58;;
59074;SDS011;44860;53.020;6.738;2023-07-13T03:56:55;13.35;;;3.55;;
59074;SDS011;44860;53.020;6.738;2023-07-13T03:59:20;12.82;;;3.50;;
59074;SDS011;44860;53.020;6.738;2023-07-13T04:01:46;13.35;;;3.70;;
59074;SDS011;44860;53.020;6.738;2023-07-13T04:04:12;12.60;;;3.78;;
59074;SDS011;44860;53.020;6.738;2023-07-13T04:06:38;16.38;;;4.30;;
59074;SDS011;44860;53.020;6.738;2023-07-13T04:09:04;17.10;;;4.15;;
59074;SDS011;44860;53.020;6.738;2023-07-13T04:11:34;12.85;;;3.65;;
59074;SDS011;44860;53.020;6.738;2023-07-13T04:14:03;11.60;;;3.80;;
59074;SDS011;44860;53.020;6.738;2023-07-13T04:16:29;18.73;;;4.10;;
59074;SDS011;44860;53.020;6.738;2023-07-13T04:18:55;14.80;;;4.18;;
59074;SDS011;44860;53.020;6.738;2023-07-13T04:21:25;18.10;;;4.32;;
59074;SDS011;44860;53.020;6.738;2023-07-13T04:23:52;12.13;;;3.60;;
59074;SDS011;44860;53.020;6.738;2023-07-13T04:26:18;16.73;;;4.50;;
59074;SDS011;44860;53.020;6.738;2023-07-13T04:28:46;12.00;;;3.92;;
59074;SDS011;44860;53.020;6.738;2023-07-13T04:31:12;15.13;;;4.15;;
59074;SDS011;44860;53.020;6.738;2023-07-13T04:33:38;14.13;;;3.90;;
59074;SDS011;44860;53.020;6.738;2023-07-13T04:36:04;12.50;;;3.83;;
59074;SDS011;44860;53.020;6.738;2023-07-13T04:38:31;14.48;;;3.72;;
59074;SDS011;44860;53.020;6.738;2023-07-13T04:41:03;15.15;;;3.92;;
59074;SDS011;44860;53.020;6.738;2023-07-13T04:43:31;12.05;;;4.03;;
59074;SDS011;44860;53.020;6.738;2023-07-13T04:46:02;12.20;;;3.92;;
59074;SDS011;44860;53.020;6.738;2023-07-13T04:48:29;11.65;;;4.13;;
59074;SDS011;44860;53.020;6.738;2023-07-13T04:50:55;15.25;;;4.30;;
59074;SDS011;44860;53.020;6.738;2023-07-13T04:53:22;13.32;;;4.63;;
59074;SDS011;44860;53.020;6.738;2023-07-13T04:55:47;17.80;;;4.32;;
59074;SDS011;44860;53.020;6.738;2023-07-13T04:58:13;12.40;;;4.13;;
59074;SDS011;44860;53.020;6.738;2023-07-13T05:00:39;15.85;;;4.95;;
59074;SDS011;44860;53.020;6.738;2023-07-13T05:03:05;14.73;;;4.20;;
59074;SDS011;44860;53.020;6.738;2023-07-13T05:05:31;12.25;;;4.00;;
59074;SDS011;44860;53.020;6.738;2023-07-13T05:07:57;13.20;;;3.90;;
59074;SDS011;44860;53.020;6.738;2023-07-13T05:10:22;12.13;;;3.95;;
59074;SDS011;44860;53.020;6.738;2023-07-13T05:12:49;13.55;;;4.10;;
59074;SDS011;44860;53.020;6.738;2023-07-13T05:15:15;12.40;;;3.92;;
59074;SDS011;44860;53.020;6.738;2023-07-13T05:17:41;14.25;;;4.15;;
59074;SDS011;44860;53.020;6.738;2023-07-13T05:20:07;15.25;;;4.35;;
59074;SDS011;44860;53.020;6.738;2023-07-13T05:22:34;15.70;;;4.13;;
59074;SDS011;44860;53.020;6.738;2023-07-13T05:25:01;15.00;;;3.90;;
59074;SDS011;44860;53.020;6.738;2023-07-13T05:27:29;14.80;;;4.45;;
59074;SDS011;44860;53.020;6.738;2023-07-13T05:29:55;11.48;;;3.65;;
59074;SDS011;44860;53.020;6.738;2023-07-13T05:32:21;11.75;;;4.10;;
59074;SDS011;44860;53.020;6.738;2023-07-13T05:34:47;14.63;;;4.25;;
59074;SDS011;44860;53.020;6.738;2023-07-13T05:37:12;14.77;;;4.03;;
59074;SDS011;44860;53.020;6.738;2023-07-13T05:39:41;11.95;;;4.10;;
59074;SDS011;44860;53.020;6.738;2023-07-13T05:42:07;13.82;;;5.03;;
59074;SDS011;44860;53.020;6.738;2023-07-13T05:44:33;15.55;;;4.30;;
59074;SDS011;44860;53.020;6.738;2023-07-13T05:46:58;11.70;;;4.20;;
59074;SDS011;44860;53.020;6.738;2023-07-13T05:49:24;12.85;;;3.65;;
59074;SDS011;44860;53.020;6.738;2023-07-13T05:51:50;12.65;;;4.40;;
59074;SDS011;44860;53.020;6.738;2023-07-13T05:54:15;14.40;;;3.63;;
59074;SDS011;44860;53.020;6.738;2023-07-13T05:56:41;11.82;;;3.83;;
59074;SDS011;44860;53.020;6.738;2023-07-13T05:59:07;15.10;;;3.53;;
59074;SDS011;44860;53.020;6.738;2023-07-13T06:01:33;12.40;;;3.80;;
59074;SDS011;44860;53.020;6.738;2023-07-13T06:03:58;14.95;;;4.13;;
59074;SDS011;44860;53.020;6.738;2023-07-13T06:06:24;12.63;;;3.70;;
59074;SDS011;44860;53.020;6.738;2023-07-13T06:08:50;11.90;;;4.20;;
59074;SDS011;44860;53.020;6.738;2023-07-13T06:11:17;13.80;;;4.15;;
59074;SDS011;44860;53.020;6.738;2023-07-13T06:13:47;13.80;;;3.90;;
59074;SDS011;44860;53.020;6.738;2023-07-13T06:16:14;13.82;;;3.90;;
59074;SDS011;44860;53.020;6.738;2023-07-13T06:18:41;15.32;;;3.92;;
59074;SDS011;44860;53.020;6.738;2023-07-13T06:21:11;11.63;;;3.63;;
59074;SDS011;44860;53.020;6.738;2023-07-13T06:23:42;12.38;;;3.70;;
59074;SDS011;44860;53.020;6.738;2023-07-13T06:26:08;12.80;;;4.00;;
59074;SDS011;44860;53.020;6.738;2023-07-13T06:28:35;11.75;;;3.50;;
59074;SDS011;44860;53.020;6.738;2023-07-13T06:31:01;13.27;;;3.95;;
59074;SDS011;44860;53.020;6.738;2023-07-13T06:33:30;14.40;;;4.57;;
59074;SDS011;44860;53.020;6.738;2023-07-13T06:35:55;11.52;;;3.88;;
59074;SDS011;44860;53.020;6.738;2023-07-13T06:38:21;12.85;;;3.55;;
59074;SDS011;44860;53.020;6.738;2023-07-13T06:40:47;12.02;;;3.58;;
59074;SDS011;44860;53.020;6.738;2023-07-13T06:43:13;13.77;;;3.78;;
59074;SDS011;44860;53.020;6.738;2023-07-13T06:45:43;12.45;;;3.83;;
59074;SDS011;44860;53.020;6.738;2023-07-13T06:48:17;14.60;;;4.18;;
59074;SDS011;44860;53.020;6.738;2023-07-13T06:50:44;11.80;;;3.85;;
59074;SDS011;44860;53.020;6.738;2023-07-13T06:53:11;11.13;;;3.80;;
59074;SDS011;44860;53.020;6.738;2023-07-13T06:55:37;11.45;;;3.30;;
59074;SDS011;44860;53.020;6.738;2023-07-13T06:58:04;11.82;;;3.30;;
59074;SDS011;44860;53.020;6.738;2023-07-13T07:00:29;11.20;;;3.38;;
59074;SDS011;44860;53.020;6.738;2023-07-13T07:02:56;10.30;;;3.17;;
59074;SDS011;44860;53.020;6.738;2023-07-13T07:05:21;8.65;;;3.05;;
59074;SDS011;44860;53.020;6.738;2023-07-13T07:07:49;10.27;;;3.13;;
59074;SDS011;44860;53.020;6.738;2023-07-13T07:10:15;8.73;;;3.22;;
59074;SDS011;44860;53.020;6.738;2023-07-13T07:12:41;9.05;;;2.70;;
59074;SDS011;44860;53.020;6.738;2023-07-13T07:15:07;10.45;;;3.03;;
59074;SDS011;44860;53.020;6.738;2023-07-13T07:17:33;9.38;;;2.88;;
59074;SDS011;44860;53.020;6.738;2023-07-13T07:19:59;8.40;;;2.60;;
59074;SDS011;44860;53.020;6.738;2023-07-13T07:22:25;12.38;;;2.72;;
59074;SDS011;44860;53.020;6.738;2023-07-13T07:24:52;10.73;;;2.78;;
59074;SDS011;44860;53.020;6.738;2023-07-13T07:27:19;10.73;;;3.00;;
59074;SDS011;44860;53.020;6.738;2023-07-13T07:29:45;9.43;;;2.60;;
59074;SDS011;44860;53.020;6.738;2023-07-13T07:32:10;10.65;;;2.70;;
59074;SDS011;44860;53.020;6.738;2023-07-13T07:34:36;10.13;;;2.33;;
59074;SDS011;44860;53.020;6.738;2023-07-13T07:37:02;8.68;;;2.78;;
59074;SDS011;44860;53.020;6.738;2023-07-13T07:39:28;12.60;;;2.65;;
59074;SDS011;44860;53.020;6.738;2023-07-13T07:41:54;7.97;;;2.60;;
59074;SDS011;44860;53.020;6.738;2023-07-13T07:44:21;8.32;;;2.60;;
59074;SDS011;44860;53.020;6.738;2023-07-13T07:46:46;8.45;;;2.92;;
59074;SDS011;44860;53.020;6.738;2023-07-13T07:49:12;8.32;;;2.95;;
59074;SDS011;44860;53.020;6.738;2023-07-13T07:51:38;10.35;;;3.08;;
59074;SDS011;44860;53.020;6.738;2023-07-13T07:54:04;7.38;;;2.63;;
59074;SDS011;44860;53.020;6.738;2023-07-13T07:56:30;10.32;;;3.22;;
59074;SDS011;44860;53.020;6.738;2023-07-13T07:58:56;12.48;;;3.08;;
59074;SDS011;44860;53.020;6.738;2023-07-13T08:01:22;9.80;;;2.92;;
59074;SDS011;44860;53.020;6.738;2023-07-13T08:03:48;11.68;;;2.80;;
59074;SDS011;44860;53.020;6.738;2023-07-13T08:06:14;15.68;;;3.92;;
59074;SDS011;44860;53.020;6.738;2023-07-13T08:08:40;13.65;;;3.95;;
59074;SDS011;44860;53.020;6.738;2023-07-13T08:11:06;16.13;;;5.53;;
59074;SDS011;44860;53.020;6.738;2023-07-13T08:13:35;12.13;;;3.83;;
59074;SDS011;44860;53.020;6.738;2023-07-13T08:16:03;13.00;;;4.10;;
59074;SDS011;44860;53.020;6.738;2023-07-13T08:18:30;8.88;;;3.22;;
59074;SDS011;44860;53.020;6.738;2023-07-13T08:20:55;10.80;;;3.65;;
59074;SDS011;44860;53.020;6.738;2023-07-13T08:23:22;8.13;;;3.47;;
59074;SDS011;44860;53.020;6.738;2023-07-13T08:25:54;6.57;;;2.78;;
59074;SDS011;44860;53.020;6.738;2023-07-13T08:28:20;12.82;;;4.32;;
59074;SDS011;44860;53.020;6.738;2023-07-13T08:30:47;9.48;;;4.05;;
59074;SDS011;44860;53.020;6.738;2023-07-13T08:33:17;10.25;;;4.22;;
59074;SDS011;44860;53.020;6.738;2023-07-13T08:35:47;12.75;;;5.13;;
59074;SDS011;44860;53.020;6.738;2023-07-13T08:38:14;15.00;;;5.63;;
59074;SDS011;44860;53.020;6.738;2023-07-13T08:40:41;13.18;;;5.38;;
59074;SDS011;44860;53.020;6.738;2023-07-13T08:43:18;11.90;;;5.78;;
59074;SDS011;44860;53.020;6.738;2023-07-13T08:45:52;13.45;;;5.32;;
59074;SDS011;44860;53.020;6.738;2023-07-13T08:51:53;11.95;;;5.70;;
59074;SDS011;44860;53.020;6.738;2023-07-13T08:54:41;16.25;;;5.90;;
59074;SDS011;44860;53.020;6.738;2023-07-13T08:57:17;9.80;;;5.03;;
59074;SDS011;44860;53.020;6.738;2023-07-13T08:59:46;12.27;;;5.30;;
59074;SDS011;44860;53.020;6.738;2023-07-13T09:04:53;11.45;;;4.65;;
59074;SDS011;44860;53.020;6.738;2023-07-13T09:10:27;7.32;;;3.08;;
59074;SDS011;44860;53.020;6.738;2023-07-13T09:15:41;5.13;;;2.90;;
59074;SDS011;44860;53.020;6.738;2023-07-13T09:20:52;6.43;;;3.10;;
59074;SDS011;44860;53.020;6.738;2023-07-13T09:23:24;9.15;;;3.22;;
59074;SDS011;44860;53.020;6.738;2023-07-13T09:25:55;7.55;;;3.03;;
59074;SDS011;44860;53.020;6.738;2023-07-13T09:28:43;9.00;;;3.75;;
59074;SDS011;44860;53.020;6.738;2023-07-13T09:31:15;6.18;;;3.22;;
59074;SDS011;44860;53.020;6.738;2023-07-13T09:33:44;8.25;;;3.67;;
59074;SDS011;44860;53.020;6.738;2023-07-13T09:36:27;6.55;;;3.35;;
59074;SDS011;44860;53.020;6.738;2023-07-13T09:39:02;9.07;;;3.80;;
59074;SDS011;44860;53.020;6.738;2023-07-13T09:44:08;7.13;;;4.47;;
59074;SDS011;44860;53.020;6.738;2023-07-13T09:46:34;9.80;;;4.95;;
59074;SDS011;44860;53.020;6.738;2023-07-13T09:49:00;8.55;;;5.10;;
59074;SDS011;44860;53.020;6.738;2023-07-13T09:51:26;12.10;;;5.20;;
59074;SDS011;44860;53.020;6.738;2023-07-13T09:53:52;10.77;;;5.28;;
59074;SDS011;44860;53.020;6.738;2023-07-13T09:56:26;14.93;;;6.05;;
59074;SDS011;44860;53.020;6.738;2023-07-13T09:58:54;12.23;;;5.22;;
59074;SDS011;44860;53.020;6.738;2023-07-13T10:01:31;8.75;;;5.28;;
59074;SDS011;44860;53.020;6.738;2023-07-13T10:04:13;8.73;;;4.95;;
59074;SDS011;44860;53.020;6.738;2023-07-13T10:06:43;8.82;;;3.83;;
59074;SDS011;44860;53.020;6.738;2023-07-13T10:09:13;7.07;;;3.92;;
59074;SDS011;44860;53.020;6.738;2023-07-13T10:11:44;6.90;;;3.70;;
59074;SDS011;44860;53.020;6.738;2023-07-13T10:14:15;7.45;;;4.32;;
59074;SDS011;44860;53.020;6.738;2023-07-13T10:16:44;6.30;;;3.85;;
59074;SDS011;44860;53.020;6.738;2023-07-13T10:21:55;7.13;;;3.70;;
59074;SDS011;44860;53.020;6.738;2023-07-13T10:24:26;7.13;;;3.85;;
59074;SDS011;44860;53.020;6.738;2023-07-13T10:32:21;5.80;;;3.53;;
59074;SDS011;44860;53.020;6.738;2023-07-13T10:34:49;5.35;;;3.60;;
59074;SDS011;44860;53.020;6.738;2023-07-13T10:37:27;6.43;;;3.80;;
59074;SDS011;44860;53.020;6.738;2023-07-13T10:39:58;6.93;;;3.70;;
59074;SDS011;44860;53.020;6.738;2023-07-13T10:42:37;5.72;;;3.40;;
59074;SDS011;44860;53.020;6.738;2023-07-13T10:45:17;6.82;;;4.00;;
59074;SDS011;44860;53.020;6.738;2023-07-13T10:47:45;7.63;;;3.70;;
59074;SDS011;44860;53.020;6.738;2023-07-13T10:50:17;9.25;;;3.80;;
59074;SDS011;44860;53.020;6.738;2023-07-13T10:52:49;6.55;;;3.38;;
59074;SDS011;44860;53.020;6.738;2023-07-13T10:58:24;5.75;;;3.25;;
59074;SDS011;44860;53.020;6.738;2023-07-13T11:03:36;5.30;;;2.75;;
59074;SDS011;44860;53.020;6.738;2023-07-13T11:21:30;5.25;;;2.60;;
59074;SDS011;44860;53.020;6.738;2023-07-13T11:24:04;5.25;;;2.97;;
59074;SDS011;44860;53.020;6.738;2023-07-13T11:31:42;5.82;;;3.22;;
59074;SDS011;44860;53.020;6.738;2023-07-13T11:34:16;7.80;;;3.78;;
59074;SDS011;44860;53.020;6.738;2023-07-13T11:36:49;6.95;;;3.40;;
59074;SDS011;44860;53.020;6.738;2023-07-13T11:41:55;6.10;;;2.80;;
59074;SDS011;44860;53.020;6.738;2023-07-13T11:44:23;6.65;;;3.00;;
59074;SDS011;44860;53.020;6.738;2023-07-13T11:46:55;6.05;;;2.60;;
59074;SDS011;44860;53.020;6.738;2023-07-13T11:49:26;6.20;;;2.60;;
59074;SDS011;44860;53.020;6.738;2023-07-13T11:51:54;6.20;;;2.60;;
59074;SDS011;44860;53.020;6.738;2023-07-13T11:54:30;3.72;;;2.20;;
59074;SDS011;44860;53.020;6.738;2023-07-13T11:56:59;9.02;;;2.35;;
59074;SDS011;44860;53.020;6.738;2023-07-13T11:59:31;7.20;;;2.40;;
59074;SDS011;44860;53.020;6.738;2023-07-13T12:01:58;4.72;;;1.88;;
59074;SDS011;44860;53.020;6.738;2023-07-13T12:04:25;4.68;;;2.20;;
59074;SDS011;44860;53.020;6.738;2023-07-13T12:07:06;3.58;;;1.95;;
59074;SDS011;44860;53.020;6.738;2023-07-13T12:09:40;6.00;;;1.83;;
59074;SDS011;44860;53.020;6.738;2023-07-13T12:12:13;4.40;;;2.00;;
59074;SDS011;44860;53.020;6.738;2023-07-13T12:14:42;5.40;;;2.08;;
59074;SDS011;44860;53.020;6.738;2023-07-13T12:17:27;6.07;;;1.95;;
59074;SDS011;44860;53.020;6.738;2023-07-13T12:19:53;6.95;;;2.20;;
59074;SDS011;44860;53.020;6.738;2023-07-13T12:22:19;5.13;;;1.80;;
59074;SDS011;44860;53.020;6.738;2023-07-13T12:24:47;6.05;;;2.00;;
59074;SDS011;44860;53.020;6.738;2023-07-13T12:27:21;4.32;;;1.52;;
59074;SDS011;44860;53.020;6.738;2023-07-13T12:29:51;6.85;;;2.00;;
59074;SDS011;44860;53.020;6.738;2023-07-13T12:32:23;5.05;;;1.70;;
59074;SDS011;44860;53.020;6.738;2023-07-13T12:34:54;3.88;;;1.98;;
59074;SDS011;44860;53.020;6.738;2023-07-13T12:37:43;4.38;;;1.90;;
59074;SDS011;44860;53.020;6.738;2023-07-13T12:40:18;4.05;;;1.70;;
59074;SDS011;44860;53.020;6.738;2023-07-13T12:42:46;5.28;;;1.75;;
59074;SDS011;44860;53.020;6.738;2023-07-13T12:45:21;4.10;;;1.85;;
59074;SDS011;44860;53.020;6.738;2023-07-13T12:47:58;4.72;;;1.80;;
59074;SDS011;44860;53.020;6.738;2023-07-13T12:50:37;3.72;;;1.55;;
59074;SDS011;44860;53.020;6.738;2023-07-13T12:53:12;5.95;;;1.88;;
59074;SDS011;44860;53.020;6.738;2023-07-13T12:55:40;3.35;;;1.67;;
59074;SDS011;44860;53.020;6.738;2023-07-13T12:58:20;12.20;;;2.35;;
59074;SDS011;44860;53.020;6.738;2023-07-13T13:01:09;4.13;;;1.63;;
59074;SDS011;44860;53.020;6.738;2023-07-13T13:03:45;4.95;;;1.73;;
59074;SDS011;44860;53.020;6.738;2023-07-13T13:08:41;4.68;;;1.50;;
59074;SDS011;44860;53.020;6.738;2023-07-13T13:11:09;3.33;;;1.40;;
59074;SDS011;44860;53.020;6.738;2023-07-13T13:13:35;4.03;;;1.35;;
59074;SDS011;44860;53.020;6.738;2023-07-13T13:16:02;3.80;;;1.38;;
59074;SDS011;44860;53.020;6.738;2023-07-13T13:18:33;5.93;;;1.70;;
59074;SDS011;44860;53.020;6.738;2023-07-13T13:21:01;3.78;;;1.67;;
59074;SDS011;44860;53.020;6.738;2023-07-13T13:23:26;2.97;;;1.23;;
59074;SDS011;44860;53.020;6.738;2023-07-13T13:25:53;4.35;;;1.40;;
59074;SDS011;44860;53.020;6.738;2023-07-13T13:28:19;3.65;;;1.50;;
59074;SDS011;44860;53.020;6.738;2023-07-13T13:30:46;4.20;;;1.38;;
59074;SDS011;44860;53.020;6.738;2023-07-13T13:33:16;6.10;;;1.70;;
59074;SDS011;44860;53.020;6.738;2023-07-13T13:35:43;4.10;;;1.70;;
59074;SDS011;44860;53.020;6.738;2023-07-13T13:38:13;4.55;;;1.58;;
59074;SDS011;44860;53.020;6.738;2023-07-13T13:40:43;4.78;;;1.70;;
59074;SDS011;44860;53.020;6.738;2023-07-13T13:43:31;6.20;;;1.70;;
59074;SDS011;44860;53.020;6.738;2023-07-13T13:45:58;4.07;;;1.60;;
59074;SDS011;44860;53.020;6.738;2023-07-13T13:48:31;4.55;;;1.50;;
59074;SDS011;44860;53.020;6.738;2023-07-13T13:51:00;4.57;;;1.45;;
59074;SDS011;44860;53.020;6.738;2023-07-13T13:53:29;5.05;;;1.40;;
59074;SDS011;44860;53.020;6.738;2023-07-13T13:55:55;5.63;;;1.55;;
59074;SDS011;44860;53.020;6.738;2023-07-13T13:58:20;4.32;;;1.42;;
59074;SDS011;44860;53.020;6.738;2023-07-13T14:00:47;4.75;;;1.38;;
59074;SDS011;44860;53.020;6.738;2023-07-13T14:03:17;3.95;;;1.45;;
59074;SDS011;44860;53.020;6.738;2023-07-13T14:05:44;4.22;;;1.25;;
59074;SDS011;44860;53.020;6.738;2023-07-13T14:08:15;6.80;;;1.83;;
59074;SDS011;44860;53.020;6.738;2023-07-13T14:10:43;3.53;;;1.45;;
59074;SDS011;44860;53.020;6.738;2023-07-13T14:13:21;6.10;;;1.60;;
59074;SDS011;44860;53.020;6.738;2023-07-13T14:15:51;4.78;;;1.60;;
59074;SDS011;44860;53.020;6.738;2023-07-13T14:18:18;4.28;;;1.70;;
59074;SDS011;44860;53.020;6.738;2023-07-13T14:20:44;4.82;;;1.50;;
59074;SDS011;44860;53.020;6.738;2023-07-13T14:23:15;5.43;;;1.70;;
59074;SDS011;44860;53.020;6.738;2023-07-13T14:25:42;3.13;;;1.40;;
59074;SDS011;44860;53.020;6.738;2023-07-13T14:30:48;5.32;;;1.55;;
59074;SDS011;44860;53.020;6.738;2023-07-13T14:33:14;4.78;;;1.50;;
59074;SDS011;44860;53.020;6.738;2023-07-13T14:35:40;4.38;;;1.40;;
59074;SDS011;44860;53.020;6.738;2023-07-13T14:38:15;4.65;;;1.60;;
59074;SDS011;44860;53.020;6.738;2023-07-13T14:40:43;2.45;;;1.35;;
59074;SDS011;44860;53.020;6.738;2023-07-13T14:43:15;5.82;;;1.90;;
59074;SDS011;44860;53.020;6.738;2023-07-13T14:45:43;4.07;;;1.58;;
59074;SDS011;44860;53.020;6.738;2023-07-13T14:48:17;4.75;;;1.70;;
59074;SDS011;44860;53.020;6.738;2023-07-13T14:50:46;5.30;;;1.67;;
59074;SDS011;44860;53.020;6.738;2023-07-13T14:53:13;5.78;;;1.92;;
59074;SDS011;44860;53.020;6.738;2023-07-13T14:55:39;5.05;;;1.60;;
59074;SDS011;44860;53.020;6.738;2023-07-13T14:58:05;4.88;;;1.55;;
59074;SDS011;44860;53.020;6.738;2023-07-13T15:00:32;4.53;;;1.50;;
59074;SDS011;44860;53.020;6.738;2023-07-13T15:02:58;6.22;;;1.70;;
59074;SDS011;44860;53.020;6.738;2023-07-13T15:05:29;4.15;;;1.60;;
59074;SDS011;44860;53.020;6.738;2023-07-13T15:07:57;5.07;;;1.83;;
59074;SDS011;44860;53.020;6.738;2023-07-13T15:10:26;3.33;;;1.40;;
59074;SDS011;44860;53.020;6.738;2023-07-13T15:13:01;5.97;;;1.92;;
59074;SDS011;44860;53.020;6.738;2023-07-13T15:15:52;3.65;;;1.60;;
59074;SDS011;44860;53.020;6.738;2023-07-13T15:18:19;6.05;;;1.90;;
59074;SDS011;44860;53.020;6.738;2023-07-13T15:20:47;6.97;;;2.00;;
59074;SDS011;44860;53.020;6.738;2023-07-13T15:23:15;4.85;;;1.63;;
59074;SDS011;44860;53.020;6.738;2023-07-13T15:25:42;5.45;;;1.67;;
59074;SDS011;44860;53.020;6.738;2023-07-13T15:28:11;3.28;;;1.55;;
59074;SDS011;44860;53.020;6.738;2023-07-13T15:30:44;4.40;;;1.55;;
59074;SDS011;44860;53.020;6.738;2023-07-13T15:33:20;2.72;;;1.70;;
59074;SDS011;44860;53.020;6.738;2023-07-13T15:35:54;3.70;;;1.50;;
59074;SDS011;44860;53.020;6.738;2023-07-13T15:38:30;4.13;;;1.67;;
59074;SDS011;44860;53.020;6.738;2023-07-13T15:40:57;6.18;;;1.58;;
59074;SDS011;44860;53.020;6.738;2023-07-13T15:43:23;3.90;;;1.48;;
59074;SDS011;44860;53.020;6.738;2023-07-13T15:45:51;7.57;;;1.70;;
59074;SDS011;44860;53.020;6.738;2023-07-13T15:48:21;4.88;;;1.67;;
59074;SDS011;44860;53.020;6.738;2023-07-13T15:50:48;5.35;;;1.80;;
59074;SDS011;44860;53.020;6.738;2023-07-13T15:53:34;6.70;;;2.17;;
59074;SDS011;44860;53.020;6.738;2023-07-13T15:56:09;5.03;;;1.80;;